createdAt,value
2019-06-26T00:01:52.076Z,13.07
2019-06-26T00:04:20.454Z,13.40
2019-06-26T00:06:48.869Z,13.27
2019-06-26T00:09:17.258Z,13.67
2019-06-26T00:11:45.693Z,14.70
2019-06-26T00:14:14.090Z,14.03
2019-06-26T00:16:42.566Z,13.23
2019-06-26T00:19:10.975Z,13.80
2019-06-26T00:21:39.419Z,12.10
2019-06-26T00:24:07.896Z,13.50
2019-06-26T00:26:36.514Z,13.80
2019-06-26T00:29:04.902Z,13.60
2019-06-26T00:31:33.337Z,13.53
2019-06-26T00:34:01.860Z,13.83
2019-06-26T00:36:30.295Z,12.90
2019-06-26T00:38:58.790Z,13.10
2019-06-26T00:41:27.223Z,12.93
2019-06-26T00:43:55.617Z,15.10
2019-06-26T00:46:24.036Z,14.67
2019-06-26T00:48:52.467Z,14.33
2019-06-26T00:51:20.925Z,14.37
2019-06-26T00:53:49.336Z,21.80
2019-06-26T00:56:18.053Z,16.37
2019-06-26T00:58:46.466Z,14.60
2019-06-26T01:01:14.883Z,14.10
2019-06-26T01:03:43.298Z,13.70
2019-06-26T01:06:13.360Z,13.97
2019-06-26T01:08:41.770Z,13.93
2019-06-26T01:11:10.183Z,15.27
2019-06-26T01:13:38.578Z,15.27
2019-06-26T01:16:07.018Z,15.37
2019-06-26T01:18:35.475Z,15.07
2019-06-26T01:21:03.956Z,14.30
2019-06-26T01:23:32.357Z,14.77
2019-06-26T01:26:00.771Z,16.83
2019-06-26T01:31:10.777Z,15.93
2019-06-26T01:33:39.201Z,14.57
2019-06-26T01:36:07.628Z,15.80
2019-06-26T01:38:36.019Z,15.33
2019-06-26T01:41:04.437Z,14.33
2019-06-26T01:43:32.836Z,15.27
2019-06-26T01:46:01.243Z,14.07
2019-06-26T01:48:29.658Z,13.97
2019-06-26T01:50:58.073Z,13.33
2019-06-26T01:53:26.492Z,13.57
2019-06-26T01:55:54.882Z,15.87
2019-06-26T01:58:23.371Z,15.63
2019-06-26T02:00:51.803Z,13.90
2019-06-26T02:03:20.271Z,15.90
2019-06-26T02:05:48.876Z,15.30
2019-06-26T02:08:17.342Z,15.00
2019-06-26T02:10:45.784Z,14.00
2019-06-26T02:13:14.252Z,18.03
2019-06-26T02:15:42.706Z,17.70
2019-06-26T02:18:27.794Z,14.40
2019-06-26T02:20:56.260Z,15.67
2019-06-26T02:23:24.729Z,15.77
2019-06-26T02:25:53.163Z,15.70
2019-06-26T02:28:21.658Z,14.60
2019-06-26T02:30:50.253Z,17.33
2019-06-26T02:33:18.731Z,18.70
2019-06-26T02:35:47.499Z,19.13
2019-06-26T02:38:15.915Z,15.00
2019-06-26T02:40:44.328Z,16.00
2019-06-26T02:43:13.546Z,16.03
2019-06-26T02:45:42.030Z,16.00
2019-06-26T02:48:10.510Z,16.60
2019-06-26T02:50:38.916Z,17.00
2019-06-26T02:53:07.382Z,17.27
2019-06-26T02:55:35.776Z,17.77
2019-06-26T02:58:04.260Z,16.97
2019-06-26T03:00:32.671Z,19.50
2019-06-26T03:03:01.080Z,18.27
2019-06-26T03:05:29.484Z,17.03
2019-06-26T03:07:57.908Z,17.20
2019-06-26T03:10:26.307Z,16.57
2019-06-26T03:12:54.725Z,16.40
2019-06-26T03:15:23.114Z,17.37
2019-06-26T03:17:55.682Z,18.27
2019-06-26T03:20:24.794Z,16.63
2019-06-26T03:22:53.212Z,15.10
2019-06-26T03:25:21.697Z,16.70
2019-06-26T03:27:50.097Z,17.30
2019-06-26T03:30:18.580Z,17.73
2019-06-26T03:32:47.009Z,16.03
2019-06-26T03:35:15.400Z,17.10
2019-06-26T03:37:43.824Z,16.07
2019-06-26T03:40:12.350Z,16.63
2019-06-26T03:42:40.786Z,15.90
2019-06-26T03:45:24.431Z,16.10
2019-06-26T03:47:40.210Z,15.90
2019-06-26T03:50:09.570Z,16.90
2019-06-26T03:52:37.976Z,17.43
2019-06-26T03:55:07.327Z,17.17
2019-06-26T03:57:35.840Z,19.80
2019-06-26T04:00:06.344Z,17.33
2019-06-26T04:02:34.762Z,17.43
2019-06-26T04:05:03.856Z,17.00
2019-06-26T04:07:32.245Z,16.40
2019-06-26T04:10:00.654Z,17.47
2019-06-26T04:12:29.053Z,15.60
2019-06-26T04:14:57.467Z,16.27
2019-06-26T04:17:25.900Z,19.47
2019-06-26T04:19:54.287Z,17.77
2019-06-26T04:22:22.707Z,16.57
2019-06-26T04:24:51.104Z,17.43
2019-06-26T04:27:19.500Z,17.70
2019-06-26T04:29:47.899Z,17.17
2019-06-26T04:32:16.298Z,18.40
2019-06-26T04:34:44.698Z,19.57
2019-06-26T04:37:13.091Z,20.43
2019-06-26T04:39:41.503Z,20.00
2019-06-26T04:42:09.908Z,18.43
2019-06-26T04:44:38.323Z,19.07
2019-06-26T04:47:06.712Z,16.33
2019-06-26T04:49:35.134Z,17.03
2019-06-26T04:52:03.533Z,17.03
2019-06-26T04:54:31.952Z,20.87
2019-06-26T04:57:00.355Z,19.93
2019-06-26T04:59:28.785Z,17.33
2019-06-26T05:01:57.177Z,16.40
2019-06-26T05:04:25.570Z,20.20
2019-06-26T05:06:53.974Z,22.73
2019-06-26T05:09:22.663Z,18.20
2019-06-26T05:11:51.062Z,16.97
2019-06-26T05:14:19.474Z,19.30
2019-06-26T05:16:47.878Z,23.30
2019-06-26T05:19:16.299Z,18.07
2019-06-26T05:21:45.610Z,17.70
2019-06-26T05:24:14.017Z,19.50
2019-06-26T05:26:42.426Z,18.77
2019-06-26T05:29:10.817Z,18.97
2019-06-26T05:31:39.229Z,17.30
2019-06-26T05:34:10.687Z,18.73
2019-06-26T05:36:37.770Z,18.67
2019-06-26T05:39:07.023Z,18.43
2019-06-26T05:41:35.795Z,18.47
2019-06-26T05:44:05.179Z,22.17
2019-06-26T05:46:33.592Z,17.50
2019-06-26T05:49:02.007Z,16.47
2019-06-26T05:51:30.407Z,17.87
2019-06-26T05:53:58.818Z,18.23
2019-06-26T05:56:27.210Z,18.70
2019-06-26T05:58:55.624Z,18.37
2019-06-26T06:01:24.022Z,18.20
2019-06-26T06:03:52.424Z,19.20
2019-06-26T06:06:20.954Z,19.37
2019-06-26T06:08:49.375Z,19.30
2019-06-26T06:11:17.838Z,17.87
2019-06-26T06:13:46.285Z,18.57
2019-06-26T06:16:14.654Z,22.50
2019-06-26T06:18:43.061Z,36.43
2019-06-26T06:21:11.490Z,18.83
2019-06-26T06:23:39.892Z,19.23
2019-06-26T06:26:08.328Z,16.67
2019-06-26T06:28:36.789Z,19.20
2019-06-26T06:31:05.270Z,17.30
2019-06-26T06:33:33.672Z,18.50
2019-06-26T06:36:02.087Z,17.57
2019-06-26T06:38:30.500Z,19.53
2019-06-26T06:40:58.889Z,17.83
2019-06-26T06:43:27.310Z,17.00
2019-06-26T06:45:55.716Z,19.20
2019-06-26T06:48:25.836Z,19.40
2019-06-26T06:50:54.224Z,17.43
2019-06-26T06:53:22.639Z,16.57
2019-06-26T06:55:51.059Z,16.17
2019-06-26T06:58:19.465Z,15.13
2019-06-26T07:00:47.860Z,15.30
2019-06-26T07:03:16.298Z,16.27
2019-06-26T07:05:44.685Z,15.40
2019-06-26T07:08:13.176Z,16.00
2019-06-26T07:10:41.561Z,17.10
2019-06-26T07:13:09.985Z,21.93
2019-06-26T07:15:38.409Z,16.73
2019-06-26T07:18:06.861Z,17.60
2019-06-26T07:20:35.285Z,16.43
2019-06-26T07:23:03.755Z,19.10
2019-06-26T07:25:32.151Z,16.60
2019-06-26T07:28:01.982Z,18.43
2019-06-26T07:30:30.741Z,14.53
2019-06-26T07:32:59.154Z,15.80
2019-06-26T07:39:08.653Z,14.77
2019-06-26T07:41:37.068Z,15.20
2019-06-26T07:44:05.491Z,15.60
2019-06-26T07:57:00.440Z,15.00
2019-06-26T07:59:28.961Z,16.13
2019-06-26T08:01:57.373Z,14.67
2019-06-26T08:04:25.778Z,14.40
2019-06-26T08:06:54.178Z,13.00
2019-06-26T08:09:22.607Z,15.20
2019-06-26T08:11:51.007Z,14.10
2019-06-26T08:14:19.488Z,13.77
2019-06-26T08:16:47.909Z,14.63
2019-06-26T08:19:16.319Z,18.33
2019-06-26T08:21:46.762Z,13.57
2019-06-26T08:24:14.839Z,14.93
2019-06-26T08:26:43.244Z,14.87
2019-06-26T08:29:11.659Z,13.73
2019-06-26T08:31:40.055Z,14.03
2019-06-26T08:34:08.475Z,14.17
2019-06-26T08:36:36.867Z,15.30
2019-06-26T08:39:07.028Z,14.63
2019-06-26T08:41:35.430Z,14.50
2019-06-26T08:44:04.873Z,17.03
2019-06-26T08:46:33.270Z,14.20
2019-06-26T08:49:01.735Z,13.17
2019-06-26T08:51:30.179Z,14.13
2019-06-26T08:53:58.587Z,14.63
2019-06-26T08:56:26.987Z,14.37
2019-06-26T08:58:55.404Z,13.90
2019-06-26T09:01:23.794Z,15.20
2019-06-26T09:03:52.206Z,13.10
2019-06-26T09:06:20.604Z,14.77
2019-06-26T09:08:49.006Z,13.40
2019-06-26T09:11:17.422Z,15.33
2019-06-26T09:13:45.839Z,15.43
2019-06-26T09:16:14.298Z,17.60
2019-06-26T09:18:42.715Z,15.50
2019-06-26T09:21:11.119Z,14.90
2019-06-26T09:23:39.529Z,15.27
2019-06-26T09:26:07.918Z,14.07
2019-06-26T09:28:36.339Z,14.27
2019-06-26T09:31:04.907Z,14.40
2019-06-26T09:33:33.307Z,14.87
2019-06-26T09:36:01.778Z,16.17
2019-06-26T09:38:30.183Z,14.33
2019-06-26T09:40:58.587Z,15.50
2019-06-26T09:43:26.988Z,15.37
2019-06-26T09:45:55.391Z,16.10
2019-06-26T09:48:23.790Z,17.20
2019-06-26T09:50:52.204Z,15.63
2019-06-26T09:53:20.642Z,16.93
2019-06-26T09:55:49.030Z,15.00
2019-06-26T09:58:17.443Z,16.57
2019-06-26T10:00:45.856Z,17.00
2019-06-26T10:03:14.318Z,16.87
2019-06-26T10:05:42.707Z,16.93
2019-06-26T10:08:11.115Z,17.00
2019-06-26T10:10:39.535Z,16.97
2019-06-26T10:13:07.949Z,17.20
2019-06-26T10:15:36.355Z,16.20
2019-06-26T10:18:04.908Z,16.80
2019-06-26T10:20:33.311Z,17.67
2019-06-26T10:23:01.725Z,17.30
2019-06-26T10:25:30.116Z,17.10
2019-06-26T10:27:58.625Z,15.00
2019-06-26T10:30:27.102Z,15.90
2019-06-26T10:32:55.492Z,17.40
2019-06-26T10:35:23.891Z,16.57
2019-06-26T10:37:52.375Z,16.83
2019-06-26T10:40:21.104Z,15.63
2019-06-26T10:42:49.520Z,16.10
2019-06-26T10:45:18.173Z,16.93
2019-06-26T10:47:46.580Z,15.83
2019-06-26T10:50:15.044Z,17.37
2019-06-26T10:52:43.443Z,16.17
2019-06-26T10:55:12.034Z,14.90
2019-06-26T10:57:40.490Z,14.47
2019-06-26T11:00:10.227Z,14.07
2019-06-26T11:02:38.919Z,14.57
2019-06-26T11:05:08.483Z,14.03
2019-06-26T11:07:36.890Z,13.30
2019-06-26T11:10:07.718Z,12.23
2019-06-26T11:12:36.139Z,12.67
2019-06-26T11:15:06.759Z,13.07
2019-06-26T11:17:35.159Z,12.17
2019-06-26T11:20:08.616Z,11.40
2019-06-26T11:22:37.094Z,11.60
2019-06-26T11:25:07.435Z,10.57
2019-06-26T11:27:35.951Z,10.60
2019-06-26T11:30:09.656Z,8.73
2019-06-26T11:32:38.092Z,10.53
2019-06-26T11:35:07.849Z,8.97
2019-06-26T11:37:36.583Z,9.90
2019-06-26T11:40:08.952Z,9.53
2019-06-26T11:42:37.354Z,9.00
2019-06-26T11:45:07.692Z,13.37
2019-06-26T11:47:36.482Z,9.33
2019-06-26T11:50:07.394Z,10.50
2019-06-26T11:52:35.843Z,9.60
2019-06-26T11:55:06.897Z,9.00
2019-06-26T11:57:35.279Z,8.23
2019-06-26T12:00:09.588Z,10.47
2019-06-26T12:02:37.977Z,9.40
2019-06-26T12:05:07.218Z,9.53
2019-06-26T12:07:35.613Z,9.73
2019-06-26T12:10:07.329Z,14.13
2019-06-26T12:12:35.899Z,9.83
2019-06-26T12:15:05.267Z,10.67
2019-06-26T12:17:33.670Z,9.53
2019-06-26T12:20:17.257Z,11.63
2019-06-26T12:22:32.198Z,8.90
2019-06-26T12:25:00.926Z,10.73
2019-06-26T12:27:29.371Z,11.47
2019-06-26T12:29:57.779Z,8.80
2019-06-26T12:32:26.209Z,10.07
2019-06-26T12:34:54.612Z,13.07
2019-06-26T12:37:36.622Z,11.00
2019-06-26T12:39:53.134Z,12.13
2019-06-26T12:42:21.526Z,9.37
2019-06-26T12:44:49.923Z,10.93
2019-06-26T12:47:18.318Z,11.50
2019-06-26T12:49:46.714Z,11.20
2019-06-26T12:52:17.080Z,9.53
2019-06-26T12:54:45.243Z,10.10
2019-06-26T12:57:13.660Z,9.63
2019-06-26T12:59:56.092Z,10.40
2019-06-26T13:02:12.230Z,8.97
2019-06-26T13:04:44.364Z,10.10
2019-06-26T13:07:10.807Z,12.07
2019-06-26T13:09:39.209Z,12.33
2019-06-26T13:12:07.601Z,12.00
2019-06-26T13:14:36.065Z,9.97
2019-06-26T13:17:04.646Z,9.40
2019-06-26T13:19:33.091Z,9.63
2019-06-26T13:22:01.488Z,9.70
2019-06-26T13:24:29.876Z,11.10
2019-06-26T13:26:58.278Z,12.90
2019-06-26T13:29:26.679Z,10.63
2019-06-26T13:31:55.087Z,10.63
2019-06-26T13:34:23.469Z,8.90
2019-06-26T13:36:51.877Z,10.07
2019-06-26T13:39:20.279Z,10.20
2019-06-26T13:41:48.676Z,9.67
2019-06-26T13:44:17.084Z,12.00
2019-06-26T13:46:45.474Z,15.40
2019-06-26T13:49:16.486Z,8.63
2019-06-26T13:51:44.054Z,10.20
2019-06-26T13:54:12.471Z,9.23
2019-06-26T13:56:40.888Z,12.37
2019-06-26T13:59:09.268Z,9.07
2019-06-26T14:01:37.676Z,12.20
2019-06-26T14:04:06.075Z,8.93
2019-06-26T14:06:34.470Z,9.40
2019-06-26T14:09:02.929Z,10.67
2019-06-26T14:11:31.347Z,10.77
2019-06-26T14:13:59.756Z,12.60
2019-06-26T14:16:29.917Z,10.83
2019-06-26T14:18:58.338Z,10.70
2019-06-26T14:21:26.789Z,10.10
2019-06-26T14:23:55.178Z,12.47
2019-06-26T14:26:23.584Z,9.67
2019-06-26T14:28:54.043Z,12.60
2019-06-26T14:31:22.099Z,13.87
2019-06-26T14:33:50.490Z,10.57
2019-06-26T14:36:18.967Z,12.63
2019-06-26T14:38:47.377Z,11.97
2019-06-26T14:41:15.800Z,12.10
2019-06-26T14:43:44.187Z,11.73
2019-06-26T14:46:12.608Z,10.57
2019-06-26T14:48:41.021Z,12.00
2019-06-26T14:51:09.425Z,13.43
2019-06-26T14:53:37.828Z,13.83
2019-06-26T14:56:06.227Z,9.83
2019-06-26T14:58:36.362Z,10.53
2019-06-26T15:01:04.914Z,13.30
2019-06-26T15:03:33.318Z,9.80
2019-06-26T15:06:15.392Z,11.80
2019-06-26T15:08:31.869Z,12.50
2019-06-26T15:11:00.265Z,9.87
2019-06-26T15:13:28.674Z,13.03
2019-06-26T15:15:57.083Z,11.00
2019-06-26T15:18:25.474Z,10.53
2019-06-26T15:20:53.879Z,13.63
2019-06-26T15:23:22.300Z,14.00
2019-06-26T15:25:50.740Z,9.80
2019-06-26T15:28:19.184Z,10.07
2019-06-26T15:30:47.583Z,9.57
2019-06-26T15:33:15.999Z,15.53
2019-06-26T15:35:44.469Z,9.50
2019-06-26T15:38:12.874Z,16.50
2019-06-26T15:40:41.301Z,10.40
2019-06-26T15:43:09.707Z,15.73
2019-06-26T15:45:38.111Z,11.87
2019-06-26T15:48:06.515Z,11.27
2019-06-26T15:50:34.916Z,9.83
2019-06-26T15:53:03.801Z,11.73
2019-06-26T15:55:32.292Z,11.13
2019-06-26T15:58:00.922Z,10.90
2019-06-26T16:00:29.333Z,10.37
2019-06-26T16:02:57.752Z,10.90
2019-06-26T16:05:26.189Z,11.60
2019-06-26T16:07:54.644Z,13.37
2019-06-26T16:10:23.040Z,14.10
2019-06-26T16:12:51.475Z,8.90
2019-06-26T16:15:19.957Z,12.67
2019-06-26T16:17:52.892Z,9.60
2019-06-26T16:20:21.335Z,14.67
2019-06-26T16:22:49.802Z,12.40
2019-06-26T16:25:18.293Z,10.33
2019-06-26T16:27:46.691Z,11.77
2019-06-26T16:30:15.630Z,11.40
2019-06-26T16:32:44.058Z,12.40
2019-06-26T16:35:12.616Z,14.60
2019-06-26T16:37:41.081Z,9.53
2019-06-26T16:40:09.491Z,10.20
2019-06-26T16:42:37.902Z,13.10
2019-06-26T16:45:07.531Z,11.90
2019-06-26T16:47:35.972Z,11.57
2019-06-26T16:50:05.954Z,13.40
2019-06-26T16:52:48.005Z,9.13
2019-06-26T16:55:06.131Z,9.60
2019-06-26T16:57:34.608Z,12.90
2019-06-26T17:00:09.354Z,12.07
2019-06-26T17:02:34.701Z,12.07
2019-06-26T17:05:03.162Z,10.10
2019-06-26T17:07:31.633Z,9.57
2019-06-26T17:10:00.035Z,10.00
2019-06-26T17:12:28.438Z,12.27
2019-06-26T17:14:56.832Z,13.80
2019-06-26T17:17:25.237Z,12.27
2019-06-26T17:19:53.635Z,10.57
2019-06-26T17:22:22.052Z,9.17
2019-06-26T17:24:50.466Z,10.07
2019-06-26T17:27:18.872Z,13.67
2019-06-26T17:29:47.283Z,11.37
2019-06-26T17:32:15.673Z,12.93
2019-06-26T17:34:44.088Z,10.37
2019-06-26T17:37:12.488Z,9.53
2019-06-26T17:39:40.904Z,11.10
2019-06-26T17:42:09.308Z,10.07
2019-06-26T17:44:37.720Z,9.63
2019-06-26T17:47:06.109Z,10.17
2019-06-26T17:49:34.519Z,12.60
2019-06-26T17:52:02.990Z,11.53
2019-06-26T17:54:31.465Z,12.80
2019-06-26T17:56:59.859Z,13.27
2019-06-26T17:59:28.267Z,9.87
2019-06-26T18:01:56.675Z,10.10
2019-06-26T18:04:25.062Z,10.23
2019-06-26T18:06:53.449Z,15.50
2019-06-26T18:09:21.902Z,12.63
2019-06-26T18:11:50.372Z,11.23
2019-06-26T18:14:18.788Z,11.00
2019-06-26T18:16:47.178Z,10.53
2019-06-26T18:19:15.603Z,12.03
2019-06-26T18:21:43.996Z,9.70
2019-06-26T18:24:12.401Z,11.13
2019-06-26T18:26:40.797Z,11.07
2019-06-26T18:29:09.215Z,11.10
2019-06-26T18:31:37.618Z,16.00
2019-06-26T18:34:06.038Z,11.30
2019-06-26T18:36:34.458Z,11.53
2019-06-26T18:39:02.876Z,15.50
2019-06-26T18:41:31.257Z,11.53
2019-06-26T18:43:59.676Z,15.57
2019-06-26T18:46:28.144Z,13.17
2019-06-26T18:48:56.562Z,17.80
2019-06-26T18:51:25.031Z,16.50
2019-06-26T18:53:54.112Z,15.77
2019-06-26T18:56:22.530Z,16.30
2019-06-26T18:58:50.965Z,16.20
2019-06-26T19:01:19.371Z,12.13
2019-06-26T19:03:47.767Z,18.37
2019-06-26T19:06:16.185Z,14.70
2019-06-26T19:08:44.600Z,12.83
2019-06-26T19:11:12.989Z,13.20
2019-06-26T19:13:41.407Z,13.80
2019-06-26T19:16:09.809Z,15.27
2019-06-26T19:18:38.210Z,13.60
2019-06-26T19:21:06.622Z,17.07
2019-06-26T19:23:35.111Z,15.30
2019-06-26T19:26:03.591Z,17.10
2019-06-26T19:28:32.346Z,15.40
2019-06-26T19:31:00.722Z,13.20
2019-06-26T19:33:29.130Z,16.47
2019-06-26T19:35:57.533Z,14.20
2019-06-26T19:38:25.959Z,15.30
2019-06-26T19:40:54.354Z,14.80
2019-06-26T19:43:22.766Z,13.00
2019-06-26T19:45:51.198Z,13.70
2019-06-26T19:48:19.595Z,12.63
2019-06-26T19:50:48.011Z,13.50
2019-06-26T19:53:16.417Z,12.90
2019-06-26T19:55:44.823Z,13.13
2019-06-26T19:58:13.230Z,14.90
2019-06-26T20:00:41.641Z,15.70
2019-06-26T20:03:10.038Z,13.73
2019-06-26T20:05:38.456Z,13.23
2019-06-26T20:08:06.867Z,13.30
2019-06-26T20:10:35.301Z,15.07
2019-06-26T20:13:03.772Z,14.20
2019-06-26T20:15:32.313Z,14.57
2019-06-26T20:18:03.983Z,15.17
2019-06-26T20:20:30.910Z,14.53
2019-06-26T20:22:59.298Z,12.97
2019-06-26T20:25:27.725Z,13.70
2019-06-26T20:27:57.103Z,13.97
2019-06-26T20:30:29.004Z,16.50
2019-06-26T20:32:57.416Z,17.10
2019-06-26T20:35:25.820Z,13.70
2019-06-26T20:37:54.221Z,12.63
2019-06-26T20:40:22.622Z,12.80
2019-06-26T20:42:51.017Z,19.33
2019-06-26T20:45:20.176Z,14.23
2019-06-26T20:47:48.593Z,12.83
2019-06-26T20:50:17.370Z,17.23
2019-06-26T20:52:45.793Z,13.83
2019-06-26T20:55:14.186Z,13.10
2019-06-26T20:57:42.613Z,15.67
2019-06-26T21:00:11.676Z,16.53
2019-06-26T21:02:40.139Z,16.23
2019-06-26T21:05:09.090Z,13.73
2019-06-26T21:07:37.509Z,12.73
2019-06-26T21:10:06.150Z,16.93
2019-06-26T21:12:34.643Z,14.40
2019-06-26T21:15:03.421Z,13.60
2019-06-26T21:17:31.816Z,13.80
2019-06-26T21:20:00.226Z,12.90
2019-06-26T21:22:28.627Z,16.27
2019-06-26T21:24:57.046Z,14.00
2019-06-26T21:27:25.459Z,17.53
2019-06-26T21:29:53.883Z,14.87
2019-06-26T21:32:22.276Z,14.10
2019-06-26T21:34:50.691Z,14.37
2019-06-26T21:37:19.115Z,14.73
2019-06-26T21:39:47.519Z,16.43
2019-06-26T21:42:16.347Z,17.63
2019-06-26T21:44:44.750Z,14.37
2019-06-26T21:47:13.152Z,15.30
2019-06-26T21:49:41.565Z,14.90
2019-06-26T21:52:09.970Z,14.63
2019-06-26T21:54:38.379Z,19.23
2019-06-26T21:57:09.303Z,19.80
2019-06-26T21:59:36.922Z,17.00
2019-06-26T22:02:05.419Z,15.40
2019-06-26T22:04:33.826Z,21.23
2019-06-26T22:07:02.236Z,15.13
2019-06-26T22:09:30.668Z,17.73
2019-06-26T22:12:00.853Z,16.10
2019-06-26T22:14:29.518Z,15.07
2019-06-26T22:16:57.937Z,16.00
2019-06-26T22:19:26.413Z,18.00
2019-06-26T22:21:54.826Z,16.13
2019-06-26T22:24:23.244Z,16.83
2019-06-26T22:26:51.659Z,17.43
2019-06-26T22:29:20.071Z,20.97
2019-06-26T22:31:48.478Z,15.53
2019-06-26T22:34:16.899Z,21.83
2019-06-26T22:36:51.747Z,15.83
2019-06-26T22:39:15.434Z,17.60
2019-06-26T22:41:43.865Z,16.70
2019-06-26T22:44:12.265Z,16.23
2019-06-26T22:46:40.749Z,16.43
2019-06-26T22:49:09.142Z,16.83
2019-06-26T22:51:37.566Z,17.90
2019-06-26T22:54:05.963Z,15.70
2019-06-26T22:56:34.372Z,15.93
2019-06-26T22:59:02.782Z,16.13
2019-06-26T23:01:31.193Z,16.30
2019-06-26T23:03:59.656Z,19.13
2019-06-26T23:06:28.085Z,18.23
2019-06-26T23:08:56.483Z,16.03
2019-06-26T23:11:24.948Z,15.00
2019-06-26T23:13:53.364Z,16.17
2019-06-26T23:16:21.775Z,16.70
2019-06-26T23:18:50.182Z,17.10
2019-06-26T23:21:18.581Z,18.70
2019-06-26T23:23:46.977Z,17.77
2019-06-26T23:26:24.117Z,17.37
2019-06-26T23:28:45.504Z,17.37
2019-06-26T23:31:13.909Z,15.87
2019-06-26T23:33:42.311Z,17.30
2019-06-26T23:36:10.728Z,18.00
2019-06-26T23:38:39.142Z,16.33
2019-06-26T23:41:07.624Z,21.77
2019-06-26T23:43:36.035Z,17.40
2019-06-26T23:46:04.452Z,19.47
2019-06-26T23:48:32.845Z,17.37
2019-06-26T23:51:01.330Z,16.63
2019-06-26T23:53:29.775Z,21.67
2019-06-26T23:55:58.203Z,19.93
2019-06-26T23:58:26.599Z,16.20
